Impacts METAR Board
IDs:

KOLS - Nogales Intl, AZ, US

Updated at: 0800 UTC 30 Oct 2020
Potential Impact None Slight Moderate High
Time 29/20Z 29/21Z 29/22Z 29/23Z 30/00Z 30/01Z 30/02Z 30/03Z 30/04Z 30/05Z 30/06Z 30/07Z 30/08Z
Temp77 79 78 79 78 69 68 69 63 61 59 55 54
Dewpt25 25 25 25 24 22 24 25 24 24 26 26 27
Altim30.11 30.09 30.08 30.07 30.07 30.07 30.09 30.10 30.11 30.13 30.13 30.12 30.13
VIS10 10 10 10 10 10 10 10 10 10 10 10 10
CIG-- -- -- -- -- -- -- -- -- -- -- -- --
CoverCLRCLRCLRCLRCLRCLRCLRCLRCLRCLRCLRCLRCLR
FltCatVFRVFRVFRVFRVFRVFRVFRVFRVFRVFRVFRVFRVFR
WX--------------------------
WDir18002600080013000505030
WSpd9 4 5 0 3 7 0 5 0 0 7 7 7
WGst-- -- -- -- -- -- -- -- -- -- -- -- --
Raw hourly METARs
KOLS 291954Z AUTO 18009KT 10SM CLR 25/M04 A3011 RMK AO2 SLP153 T02501039
KOLS 292054Z AUTO VRB04KT 10SM CLR 26/M04 A3009 RMK AO2 SLP146 T02611039 56023
KOLS 292154Z AUTO 26005KT 10SM CLR 26/M04 A3008 RMK AO2 SLP141 T02561039
KOLS 292254Z AUTO 00000KT 10SM CLR 26/M04 A3007 RMK AO2 SLP138 T02611039
KOLS 292354Z AUTO VRB03KT 10SM CLR 26/M04 A3007 RMK AO2 SLP136 T02561044 10267 20211 56007
KOLS 300054Z AUTO 08007KT 10SM CLR 21/M06 A3007 RMK AO2 SLP144 T02061056
KOLS 300154Z AUTO 00000KT 10SM CLR 20/M04 A3009 RMK AO2 SLP151 T02001044
KOLS 300254Z AUTO 13005KT 10SM CLR 21/M04 A3010 RMK AO2 SLP148 T02061039 53012
KOLS 300354Z AUTO 00000KT 10SM CLR 17/M04 A3011 RMK AO2 SLP150 T01721044
KOLS 300454Z AUTO 00000KT 10SM CLR 16/M04 A3013 RMK AO2 SLP151 T01611044
KOLS 300554Z AUTO 05007KT 10SM CLR 15/M03 A3013 RMK AO2 SLP153 T01501033 10256 20139 53008
KOLS 300654Z AUTO 05007KT 10SM CLR 13/M03 A3012 RMK AO2 SLP148 T01281033 402670044
KOLS 300754Z AUTO 03007KT 10SM CLR 12/M03 A3013 RMK AO2 SLP151 T01221028



Page loaded:  08:12 UTC  |   01:12 AM Pacific  |   02:12 AM Mountain  |   03:12 AM Central  |   04:12 AM Eastern

 

ADVISORIES

FORECASTS

FORECASTS

OBSERVATIONS

USER TOOLS

ABOUT US